Harborside, ME (04642)

08:07 EDT le 26 juillet 2016 (GMT -0400)
Harborside | | Change Station

Alt. 12 ft 44.35 °N, 68.82 °W | Updated 14 seconds ago

Overcast
Couvert
68.9 ° F
Paraît 68.9 ° F
N
0.0
Vent Variable Vent de OSO
Gusts 4.0 mph

Aujourd'hui
Haut(e) -- | Bas -- ° F
--% Risque de précip.
Hier
Haut(e) -- | Bas -- ° F
Precip. -- pouce
Pression 29.76 pouce
Visibilité 2.0 Miles terrestres
Nuages Couvert 200 ft
Point de rosée Non disponible.
Humidité Non disponible.
Précipitations 0.02 pouce
Profondeur de la couche neigeuse Non disponible.
5:16 AM 8:06 PM
Lune gibbeuse décroissante, 55% visible
METAR KBHB 261156Z AUTO 20004KT 2SM BR OVC002 20/20 A2975 RMK AO2 VIS 1V3 SLP076 60005 70043 T02000200 10206 20189 51004
Pression 29.76 pouce
Visibilité 2.0 Miles terrestres
Nuages Couvert 200 ft
Point de rosée Non disponible.
Humidité Non disponible.
Précipitations 0.02 pouce
Profondeur de la couche neigeuse Non disponible.
5:16 AM 8:06 PM
Lune gibbeuse décroissante, 55% visible
METAR KBHB 261156Z AUTO 20004KT 2SM BR OVC002 20/20 A2975 RMK AO2 VIS 1V3 SLP076 60005 70043 T02000200 10206 20189 51004

10-Day Weather Forecast

Almanac

Astronomie

Jul. 26, 2016 Lever Coucher
Temps réel
Crépuscule civil
Crépuscule nautique
Crépuscule astronomique
Lune
Durée de lumière visible
Longueur du jour
Tomorrow will be .
, % of the Moon is Illuminated

Extrêmes aujourd'hui

State Highs State Lows

Community

WunderPhotos

Upload Photos

1,927,580 Photos téléchargées !

WunderBlog® & News

Nearby

Qualité de l'air

  Qualité de l'air Indice de la qualité de l'air Polluant
Not available.

Épaisseur de neige

Station Depth Altitude

Activité sismique

Ville Distance Mag. Time & Date
Minimum magnitude displayed is 2.5.

Températures des eaux côtières

Lieu Température

Stations

Stations météo à proximité

Emplacement de la station Température Refroidissement éolien Point de rosée Humidité Vent Precip. Alt. Mise à jour Type
                   

Watches & Warnings

There are currently no watches in effect.